Time;durP1;ratioP1;P1;durP2;ratioP2;P2;SDS_P1;SDS_P2;PMS_P1;PMS_P2;Temp;Humidity;BMP_temperature;BMP_pressure;BME280_temperature;BME280_humidity;BME280_pressure;Samples;Min_cycle;Max_cycle;Signal;HPM_P1;HPM_P2
2021/08/13 00:02:54;;;;;;;12.30;7.15;;;;;;;13.02;71.43;100518.16;256483;1104;115578;-67
2021/08/13 00:07:58;;;;;;;7.85;6.90;;;;;;;12.99;71.91;100515.13;254463;1104;114898;-66
2021/08/13 00:13:02;;;;;;;13.40;7.33;;;;;;;12.93;71.90;100516.87;256928;1104;115225;-66
2021/08/13 00:18:06;;;;;;;9.58;6.48;;;;;;;12.86;72.26;100516.16;254441;1104;116461;-66
2021/08/13 00:23:10;;;;;;;9.83;7.53;;;;;;;12.81;72.24;100511.52;257256;1104;116379;-66
2021/08/13 00:28:12;;;;;;;9.13;8.13;;;;;;;12.85;72.92;100514.52;256100;1104;116990;-66
2021/08/13 00:33:15;;;;;;;9.13;6.23;;;;;;;12.78;72.19;100509.30;257056;1104;116337;-66
2021/08/13 00:38:18;;;;;;;13.60;8.63;;;;;;;12.75;72.55;100512.44;257028;1102;115654;-67
2021/08/13 00:43:21;;;;;;;11.17;8.20;;;;;;;12.72;72.38;100512.08;257093;1104;118522;-67
2021/08/13 00:48:24;;;;;;;11.58;7.83;;;;;;;12.64;72.62;100510.54;257287;1104;116766;-67
2021/08/13 00:53:27;;;;;;;10.23;7.13;;;;;;;12.60;73.17;100513.89;257356;1104;115895;-68
2021/08/13 00:58:29;;;;;;;11.03;8.35;;;;;;;12.57;72.95;100514.34;257007;1104;115414;-67
2021/08/13 01:03:32;;;;;;;8.43;7.57;;;;;;;12.57;73.18;100506.33;256894;1104;115796;-67
2021/08/13 01:08:34;;;;;;;11.40;7.88;;;;;;;12.62;73.23;100509.13;255429;1104;116231;-67
2021/08/13 01:14:14;;;;;;;8.10;6.83;;;;;;;12.59;73.24;100505.05;255198;1104;116411;-66
2021/08/13 01:19:39;;;;;;;13.73;8.33;;;;;;;12.60;73.40;100508.55;255974;1104;115640;-66
2021/08/13 01:24:47;;;;;;;12.08;7.40;;;;;;;12.51;72.89;100500.05;257037;1104;115382;-67
2021/08/13 01:29:58;;;;;;;12.33;7.50;;;;;;;12.46;73.02;100498.06;256979;1104;115799;-67
2021/08/13 01:35:07;;;;;;;10.30;7.23;;;;;;;12.42;73.12;100491.54;256331;1104;115566;-67
2021/08/13 01:40:15;;;;;;;10.63;7.95;;;;;;;12.35;73.14;100495.34;256175;1104;115665;-67
2021/08/13 01:45:23;;;;;;;9.13;8.23;;;;;;;12.36;72.94;100496.98;256035;1104;115627;-67
2021/08/13 01:50:28;;;;;;;9.20;7.95;;;;;;;12.41;73.99;100499.78;254859;1104;117035;-66
2021/08/13 01:55:33;;;;;;;8.85;7.30;;;;;;;12.33;73.44;100498.24;253936;1104;115719;-66
2021/08/13 02:00:36;;;;;;;10.45;6.93;;;;;;;12.24;73.94;100499.59;254967;1104;116128;-67
2021/08/13 02:05:41;;;;;;;10.15;9.15;;;;;;;12.14;73.89;100502.83;253960;1104;117168;-67
2021/08/13 02:10:48;;;;;;;8.80;7.90;;;;;;;12.11;74.14;100505.95;253881;1104;116434;-67
2021/08/13 02:16:05;;;;;;;9.90;8.98;;;;;;;12.14;74.08;100510.03;257288;1104;116983;-67
2021/08/13 02:21:13;;;;;;;9.60;7.78;;;;;;;12.19;74.02;100512.85;254598;1104;117669;-67
2021/08/13 02:26:16;;;;;;;12.90;7.73;;;;;;;12.15;73.73;100506.32;257080;1104;115479;-67
2021/08/13 02:31:20;;;;;;;12.43;7.85;;;;;;;12.11;73.93;100513.16;255561;1104;114909;-66
2021/08/13 02:36:44;;;;;;;11.63;9.00;;;;;;;12.07;73.91;100511.97;257159;1104;115837;-67
2021/08/13 02:41:48;;;;;;;9.48;8.48;;;;;;;12.07;73.93;100517.31;254178;1104;116809;-66
2021/08/13 02:46:57;;;;;;;10.10;8.55;;;;;;;12.03;74.28;100514.27;257231;1104;116502;-68
2021/08/13 02:52:05;;;;;;;11.17;7.80;;;;;;;11.98;74.28;100522.14;257208;1104;117378;-67
2021/08/13 02:57:10;;;;;;;12.75;7.83;;;;;;;11.92;74.62;100506.22;257057;1104;116923;-67
2021/08/13 03:02:15;;;;;;;10.03;8.40;;;;;;;11.88;74.38;100508.52;257057;1104;116340;-66
2021/08/13 03:07:20;;;;;;;9.18;7.90;;;;;;;11.86;74.53;100499.91;256206;1104;117341;-67
2021/08/13 03:12:24;;;;;;;9.85;7.80;;;;;;;11.91;74.60;100505.41;257041;1104;115769;-68
2021/08/13 03:17:28;;;;;;;11.25;8.05;;;;;;;11.95;74.57;100511.91;257124;1104;115522;-68
2021/08/13 03:22:31;;;;;;;9.15;7.53;;;;;;;12.03;74.44;100508.11;256798;1105;116130;-68
2021/08/13 03:27:35;;;;;;;10.18;7.70;;;;;;;11.99;74.41;100512.27;257274;1104;116222;-68
2021/08/13 03:32:42;;;;;;;8.08;7.18;;;;;;;11.95;74.80;100500.40;257250;1104;115986;-68
2021/08/13 03:37:46;;;;;;;9.20;7.88;;;;;;;11.99;74.99;100501.58;257008;1104;116496;-67
2021/08/13 03:42:51;;;;;;;8.90;7.93;;;;;;;12.04;74.70;100494.53;254258;1104;116099;-67
2021/08/13 03:47:55;;;;;;;11.73;7.65;;;;;;;12.06;74.96;100492.45;256005;1100;116354;-65
2021/08/13 03:52:59;;;;;;;9.08;8.13;;;;;;;12.09;74.66;100496.53;254695;1104;116723;-66
2021/08/13 03:58:03;;;;;;;17.55;7.88;;;;;;;12.17;74.97;100509.59;254638;1104;116077;-67
2021/08/13 04:03:05;;;;;;;10.40;8.38;;;;;;;12.28;74.57;100503.45;255886;1104;117242;-67
2021/08/13 04:08:08;;;;;;;10.83;7.30;;;;;;;12.34;75.40;100505.22;254528;1104;116735;-66
2021/08/13 04:13:11;;;;;;;9.05;6.88;;;;;;;12.40;74.63;100504.31;255011;1104;116654;-66
2021/08/13 04:18:14;;;;;;;13.10;7.95;;;;;;;12.47;74.74;100501.55;253877;1104;116299;-67
2021/08/13 04:23:16;;;;;;;9.33;7.20;;;;;;;12.59;74.95;100502.38;254967;1104;116250;-67
2021/08/13 04:28:19;;;;;;;8.53;7.08;;;;;;;12.73;74.87;100497.66;254544;1104;116670;-67
2021/08/13 04:33:22;;;;;;;11.23;7.75;;;;;;;12.89;75.00;100502.31;253702;1104;116970;-67
2021/08/13 04:38:25;;;;;;;11.90;7.58;;;;;;;13.10;75.72;100501.77;255181;1104;116420;-67
2021/08/13 04:43:27;;;;;;;13.13;8.93;;;;;;;13.32;75.59;100509.23;254170;1104;116498;-67
2021/08/13 04:48:30;;;;;;;15.05;7.55;;;;;;;13.54;75.71;100507.58;255515;1104;115772;-67
2021/08/13 04:53:34;;;;;;;22.38;9.00;;;;;;;13.82;75.49;100506.81;256484;1104;115248;-67
2021/08/13 04:58:37;;;;;;;14.43;8.63;;;;;;;14.17;75.64;100512.07;257060;1104;116528;-68
2021/08/13 05:03:40;;;;;;;16.23;8.97;;;;;;;14.46;75.65;100510.22;257066;1104;115492;-68
2021/08/13 05:08:44;;;;;;;11.23;9.25;;;;;;;14.77;75.63;100514.23;257197;1104;116773;-69
2021/08/13 05:13:49;;;;;;;10.55;8.43;;;;;;;15.10;75.55;100516.92;255826;1104;116233;-68
2021/08/13 05:18:52;;;;;;;14.53;8.40;;;;;;;15.53;75.67;100509.22;257184;1104;115772;-69
2021/08/13 05:23:56;;;;;;;12.30;9.05;;;;;;;15.94;75.17;100511.36;255825;1104;116155;-68
2021/08/13 05:28:59;;;;;;;13.43;7.63;;;;;;;16.37;75.21;100520.45;257114;1104;116073;-68
2021/08/13 05:34:03;;;;;;;11.28;7.70;;;;;;;17.25;74.12;100513.68;257081;1104;116090;-69
2021/08/13 05:39:07;;;;;;;11.10;7.18;;;;;;;20.16;70.91;100521.78;256852;1104;115519;-69
2021/08/13 05:44:11;;;;;;;8.10;6.20;;;;;;;20.30;70.60;100521.96;256952;1104;115689;-69
2021/08/13 05:49:18;;;;;;;5.75;5.15;;;;;;;21.39;68.21;100520.59;254761;1100;115500;-68
2021/08/13 05:54:22;;;;;;;8.48;7.05;;;;;;;21.52;68.24;100513.66;256937;1104;116464;-69
2021/08/13 05:59:26;;;;;;;7.25;6.45;;;;;;;21.29;67.30;100522.59;254132;1104;116100;-68
2021/08/13 06:04:32;;;;;;;7.47;6.37;;;;;;;21.12;67.00;100521.08;255925;1104;115730;-69
2021/08/13 06:09:36;;;;;;;7.38;6.58;;;;;;;21.19;66.68;100518.84;253652;1104;115071;-69
2021/08/13 06:14:39;;;;;;;5.95;5.35;;;;;;;21.18;65.97;100519.94;257102;1104;116574;-69
2021/08/13 06:19:43;;;;;;;7.08;6.08;;;;;;;21.27;66.21;100520.16;254644;1104;115113;-70
2021/08/13 06:24:46;;;;;;;8.08;6.30;;;;;;;21.43;66.11;100523.52;254448;1104;115395;-69
2021/08/13 06:29:50;;;;;;;6.13;5.50;;;;;;;21.44;65.53;100523.23;257077;1104;115063;-69
2021/08/13 06:34:53;;;;;;;7.48;5.83;;;;;;;21.41;65.26;100528.41;257049;1104;116651;-70
2021/08/13 06:39:57;;;;;;;12.25;6.63;;;;;;;21.47;65.09;100521.84;254785;1104;115690;-70
2021/08/13 06:45:01;;;;;;;6.33;5.75;;;;;;;21.50;64.94;100526.70;254166;1104;117661;-69
2021/08/13 06:50:05;;;;;;;9.05;7.18;;;;;;;21.59;64.43;100526.89;255420;1104;114981;-69
2021/08/13 06:55:10;;;;;;;9.73;6.50;;;;;;;21.73;64.21;100534.03;255859;1104;116428;-70
2021/08/13 07:00:15;;;;;;;10.93;6.98;;;;;;;21.99;63.95;100533.73;253909;1104;115823;-68
2021/08/13 07:05:18;;;;;;;8.28;6.45;;;;;;;22.41;63.27;100531.00;257107;1104;116019;-68
2021/08/13 07:10:23;;;;;;;6.10;5.23;;;;;;;23.25;62.37;100530.20;257084;1104;116518;-68
2021/08/13 07:15:26;;;;;;;7.25;5.98;;;;;;;23.91;62.02;100529.77;257159;1104;116485;-68
2021/08/13 07:20:33;;;;;;;7.63;6.20;;;;;;;24.89;61.17;100532.73;256737;1104;115020;-67
2021/08/13 07:25:36;;;;;;;6.95;6.35;;;;;;;25.77;60.46;100530.97;256760;1104;116194;-68
2021/08/13 07:30:39;;;;;;;6.20;5.40;;;;;;;26.30;58.83;100524.50;257073;1104;117809;-69
2021/08/13 07:35:43;;;;;;;6.23;5.58;;;;;;;26.43;57.93;100522.75;257229;1104;115862;-68
2021/08/13 07:40:46;;;;;;;5.30;4.70;;;;;;;26.60;58.08;100527.44;254541;1104;137178;-68
2021/08/13 07:45:49;;;;;;;4.53;4.13;;;;;;;26.64;56.55;100525.63;257104;1104;115618;-69
2021/08/13 07:50:53;;;;;;;5.88;4.95;;;;;;;26.44;56.38;100538.84;257026;1104;116104;-68
2021/08/13 07:55:56;;;;;;;4.85;4.35;;;;;;;26.51;55.62;100538.36;254862;1104;115581;-68
2021/08/13 08:01:00;;;;;;;4.63;4.23;;;;;;;26.90;55.75;100542.05;254666;1104;116334;-68
2021/08/13 08:06:05;;;;;;;5.10;4.00;;;;;;;27.60;54.34;100529.80;256575;1104;115025;-69
2021/08/13 08:11:07;;;;;;;4.33;3.93;;;;;;;28.15;53.76;100529.63;253719;1104;114648;-68
2021/08/13 08:16:12;;;;;;;5.58;3.98;;;;;;;28.29;51.45;100532.95;254200;1104;116904;-69
2021/08/13 08:21:16;;;;;;;3.43;3.13;;;;;;;27.62;49.60;100536.55;254094;1104;116068;-68
2021/08/13 08:26:19;;;;;;;4.53;3.93;;;;;;;26.95;50.45;100550.05;253575;1100;116577;-68
2021/08/13 08:31:23;;;;;;;3.73;3.43;;;;;;;26.96;51.09;100544.29;254503;1104;117171;-68
2021/08/13 08:36:27;;;;;;;4.13;3.80;;;;;;;27.51;51.26;100540.77;253880;1104;115960;-68
2021/08/13 08:41:31;;;;;;;4.70;4.15;;;;;;;27.88;50.28;100547.38;254537;1104;116066;-67
2021/08/13 08:46:35;;;;;;;6.65;3.75;;;;;;;28.39;49.34;100546.27;253987;1104;117443;-68
2021/08/13 08:51:42;;;;;;;4.13;3.60;;;;;;;28.79;48.33;100546.55;254107;1104;116506;-68
2021/08/13 08:56:47;;;;;;;4.68;4.28;;;;;;;29.10;47.48;100548.06;254284;1104;116486;-68
2021/08/13 09:02:14;;;;;;;3.35;3.05;;;;;;;29.32;45.15;100535.88;254784;1104;116309;-68
2021/08/13 09:07:18;;;;;;;3.83;3.55;;;;;;;29.44;45.40;100547.70;254255;1104;117041;-68
2021/08/13 09:12:23;;;;;;;3.85;3.55;;;;;;;29.80;45.40;100543.37;255645;1104;115966;-68
2021/08/13 09:17:31;;;;;;;3.57;3.27;;;;;;;29.70;43.76;100533.63;255371;1104;116294;-68
2021/08/13 09:22:43;;;;;;;3.55;3.10;;;;;;;29.23;44.51;100524.99;256663;1104;117172;-69
2021/08/13 09:27:47;;;;;;;3.75;3.45;;;;;;;29.10;43.72;100523.35;255788;1104;115618;-68
2021/08/13 09:33:08;;;;;;;3.63;3.38;;;;;;;29.40;42.89;100519.31;256981;1104;115778;-69
2021/08/13 09:38:14;;;;;;;3.98;3.68;;;;;;;29.53;42.50;100516.58;257330;1104;115355;-69
2021/08/13 09:43:17;;;;;;;4.48;3.65;;;;;;;29.72;42.58;100517.60;257270;1104;115839;-68
2021/08/13 09:48:27;;;;;;;5.50;3.33;;;;;;;29.73;41.70;100512.91;256153;1104;115344;-69
2021/08/13 09:53:32;;;;;;;4.40;3.18;;;;;;;29.48;41.10;100498.38;255538;1104;115707;-69
2021/08/13 09:58:36;;;;;;;3.70;3.10;;;;;;;29.30;41.49;100511.51;254089;1104;115298;-68
2021/08/13 10:03:52;;;;;;;3.73;3.43;;;;;;;29.29;41.79;100507.16;254009;1104;115966;-68
2021/08/13 10:08:56;;;;;;;4.03;3.63;;;;;;;29.65;42.19;100494.61;255330;1104;116744;-68
2021/08/13 10:13:59;;;;;;;2.98;2.73;;;;;;;29.99;40.94;100501.56;254387;1104;116165;-68
2021/08/13 10:19:03;;;;;;;6.13;3.78;;;;;;;30.14;41.18;100504.41;254751;1104;115935;-68
2021/08/13 10:24:07;;;;;;;4.13;2.80;;;;;;;30.00;40.68;100478.42;255136;1104;115857;-69
2021/08/13 10:29:11;;;;;;;4.10;3.80;;;;;;;30.01;41.84;100488.28;254623;1104;119912;-68
2021/08/13 10:34:16;;;;;;;4.75;4.18;;;;;;;30.34;40.95;100475.12;254331;1104;116942;-68
2021/08/13 10:39:22;;;;;;;5.13;3.40;;;;;;;30.35;40.28;100484.17;254083;1104;117274;-68
2021/08/13 10:44:35;;;;;;;6.85;4.70;;;;;;;30.54;40.90;100480.79;254996;1104;115456;-68
2021/08/13 10:49:44;;;;;;;5.43;3.93;;;;;;;30.59;40.74;100475.84;254363;1104;115440;-68
2021/08/13 10:54:49;;;;;;;4.47;3.80;;;;;;;30.52;39.87;100477.59;254226;1104;116385;-68
2021/08/13 10:59:55;;;;;;;4.70;3.68;;;;;;;30.42;39.91;100468.67;254942;1104;116519;-68
2021/08/13 11:04:58;;;;;;;4.47;4.17;;;;;;;30.55;39.33;100460.38;253980;1104;115610;-67
2021/08/13 11:10:01;;;;;;;5.43;4.80;;;;;;;30.68;39.21;100459.17;254254;1104;121257;-68
2021/08/13 11:15:04;;;;;;;4.67;4.30;;;;;;;30.65;39.35;100454.38;253521;1100;116740;-68
2021/08/13 11:20:12;;;;;;;6.15;4.60;;;;;;;30.43;39.00;100442.77;256986;1104;115137;-69
2021/08/13 11:25:16;;;;;;;6.38;3.90;;;;;;;30.51;38.63;100442.97;254692;1100;115183;-68
2021/08/13 11:30:56;;;;;;;4.05;3.75;;;;;;;30.15;38.60;100434.52;254909;1104;115021;-68
2021/08/13 11:36:01;;;;;;;4.85;4.33;;;;;;;29.81;38.70;100435.84;256685;1104;116934;-68
2021/08/13 11:41:24;;;;;;;9.53;3.83;;;;;;;29.93;39.02;100448.77;257080;1104;116534;-68
2021/08/13 11:46:32;;;;;;;7.30;4.63;;;;;;;30.06;40.02;100438.55;256876;1104;115130;-68
2021/08/13 11:51:37;;;;;;;5.28;4.70;;;;;;;30.21;39.03;100437.83;256951;1104;115193;-68
2021/08/13 11:56:40;;;;;;;5.60;4.75;;;;;;;30.14;38.34;100432.12;256974;1104;116059;-69
2021/08/13 12:01:53;;;;;;;3.78;3.48;;;;;;;29.94;38.88;100427.58;256369;1104;115539;-68
2021/08/13 12:06:59;;;;;;;;;;;;;;;29.65;39.73;100432.22;255281;1104;116509;-68
2021/08/13 12:12:05;;;;;;;6.00;4.77;;;;;;;29.69;40.14;100435.05;255667;1104;103064;-67
2021/08/13 12:17:10;;;;;;;4.40;4.05;;;;;;;29.80;39.56;100419.70;254180;1104;116077;-68
2021/08/13 12:22:14;;;;;;;;;;;;;;;29.55;40.32;100416.20;255083;1104;115615;-68
2021/08/13 12:27:18;;;;;;;4.33;3.63;;;;;;;29.53;39.89;100415.75;256564;1104;105258;-68
2021/08/13 12:32:37;;;;;;;4.78;4.38;;;;;;;29.49;40.30;100412.08;255391;1099;116240;-67
2021/08/13 12:37:42;;;;;;;4.70;4.40;;;;;;;29.60;40.20;100409.67;253540;1104;115913;-69
2021/08/13 12:42:50;;;;;;;5.13;4.73;;;;;;;29.68;40.23;100409.52;255907;1104;115508;-68
2021/08/13 12:47:56;;;;;;;6.67;4.97;;;;;;;29.91;39.82;100403.53;253953;1104;115447;-68
2021/08/13 12:53:17;;;;;;;6.28;3.73;;;;;;;30.05;39.75;100406.70;255044;1104;114937;-67
2021/08/13 12:58:46;;;;;;;4.63;4.33;;;;;;;29.96;39.07;100400.55;253517;1104;117616;-68
2021/08/13 13:04:08;;;;;;;6.43;4.50;;;;;;;29.80;39.56;100390.27;254365;1104;115762;-68
2021/08/13 13:09:12;;;;;;;10.15;4.70;;;;;;;29.93;39.61;100390.25;253536;1104;115758;-68
2021/08/13 13:14:16;;;;;;;5.70;4.58;;;;;;;29.95;38.99;100382.45;254302;1104;115666;-67
2021/08/13 13:19:22;;;;;;;7.28;4.30;;;;;;;29.91;39.73;100385.09;257131;1104;115273;-70
2021/08/13 13:24:32;;;;;;;5.80;4.63;;;;;;;30.04;39.26;100366.62;257071;1104;115446;-69
2021/08/13 13:29:45;;;;;;;5.23;4.73;;;;;;;30.05;38.80;100373.72;254431;1104;115394;-69
2021/08/13 13:35:08;;;;;;;6.25;4.88;;;;;;;29.99;38.64;100366.86;253612;1104;115767;-69
2021/08/13 13:40:12;;;;;;;5.33;4.15;;;;;;;29.95;38.68;100357.71;253786;1100;115762;-69
2021/08/13 13:45:19;;;;;;;5.15;4.65;;;;;;;29.87;38.33;100364.15;253643;1104;115705;-69
2021/08/13 13:50:25;;;;;;;5.25;4.75;;;;;;;29.76;38.86;100367.38;257080;1104;116412;-69
2021/08/13 13:55:28;;;;;;;5.35;4.83;;;;;;;29.74;38.65;100358.68;256576;1104;115600;-68
2021/08/13 14:00:35;;;;;;;5.50;5.00;;;;;;;29.75;39.85;100360.28;255048;1104;116987;-68
2021/08/13 14:05:39;;;;;;;6.03;4.30;;;;;;;29.83;39.93;100358.55;254179;1104;115511;-68
2021/08/13 14:10:42;;;;;;;5.57;5.07;;;;;;;29.68;39.63;100359.27;253647;1104;115822;-68
2021/08/13 14:15:45;;;;;;;5.60;4.68;;;;;;;29.23;39.96;100349.27;253787;1104;115178;-68
2021/08/13 14:20:48;;;;;;;5.73;5.33;;;;;;;29.22;40.43;100341.38;254376;1104;115209;-67
2021/08/13 14:25:50;;;;;;;6.38;4.20;;;;;;;29.30;40.20;100334.96;256802;1104;115330;-68
2021/08/13 14:30:54;;;;;;;5.60;5.10;;;;;;;29.26;40.40;100332.10;255151;1104;115118;-67
2021/08/13 14:35:58;;;;;;;6.18;4.73;;;;;;;29.18;40.00;100318.49;255352;1104;115370;-67
2021/08/13 14:41:02;;;;;;;5.83;5.33;;;;;;;29.03;40.17;100320.01;254688;1104;114877;-67
2021/08/13 14:46:05;;;;;;;6.25;4.43;;;;;;;28.88;40.06;100318.74;254870;1104;115415;-68
2021/08/13 14:51:08;;;;;;;5.10;4.68;;;;;;;28.88;40.44;100309.70;253601;1104;115696;-68
2021/08/13 14:56:11;;;;;;;6.38;5.40;;;;;;;28.85;40.90;100308.45;254408;1104;116834;-67
2021/08/13 15:01:14;;;;;;;5.78;5.20;;;;;;;28.89;41.06;100311.31;253984;1104;115335;-67
2021/08/13 15:06:18;;;;;;;8.43;4.88;;;;;;;28.63;40.86;100314.36;254303;1099;115596;-67
2021/08/13 15:11:21;;;;;;;6.15;5.00;;;;;;;28.62;41.70;100304.53;254647;1104;115531;-67
2021/08/13 15:16:24;;;;;;;7.05;5.00;;;;;;;28.63;41.56;100306.13;254422;1104;115440;-68
2021/08/13 15:21:28;;;;;;;6.37;5.80;;;;;;;28.55;41.98;100288.63;253551;1104;115984;-67
2021/08/13 15:26:33;;;;;;;5.65;5.23;;;;;;;28.48;42.45;100280.16;257022;1104;115489;-68
2021/08/13 15:31:40;;;;;;;5.50;5.13;;;;;;;28.43;41.75;100266.70;253731;1104;115968;-68
2021/08/13 15:36:44;;;;;;;6.83;5.28;;;;;;;28.39;42.23;100268.52;256097;1104;115234;-68
2021/08/13 15:41:53;;;;;;;5.33;4.85;;;;;;;28.28;42.06;100264.61;253830;1104;115355;-69
2021/08/13 15:46:56;;;;;;;5.23;4.83;;;;;;;28.20;42.17;100258.05;254857;1104;114989;-68
2021/08/13 15:52:00;;;;;;;6.28;5.63;;;;;;;28.10;42.70;100253.82;257005;1104;115563;-69
2021/08/13 15:57:04;;;;;;;11.10;5.78;;;;;;;28.05;42.47;100255.97;256929;1104;116053;-71
2021/08/13 16:02:08;;;;;;;7.10;6.50;;;;;;;27.98;42.73;100242.82;253825;1104;115503;-71
2021/08/13 16:07:12;;;;;;;6.15;5.65;;;;;;;27.89;43.79;100246.78;257113;1104;115663;-69
2021/08/13 16:12:16;;;;;;;6.18;5.60;;;;;;;27.76;43.25;100241.28;257204;1104;115164;-69
2021/08/13 16:17:19;;;;;;;6.73;5.90;;;;;;;27.69;43.62;100248.44;254710;1104;117616;-69
2021/08/13 16:22:23;;;;;;;5.60;5.20;;;;;;;27.59;44.24;100254.31;253785;1104;116810;-69
2021/08/13 16:27:26;;;;;;;9.05;5.48;;;;;;;27.39;44.78;100244.97;256422;1104;117448;-69
2021/08/13 16:32:29;;;;;;;6.85;6.05;;;;;;;27.25;45.51;100238.95;253787;1104;117375;-68
2021/08/13 16:37:32;;;;;;;14.75;5.88;;;;;;;27.04;46.10;100236.20;253784;1104;115942;-68
2021/08/13 16:42:36;;;;;;;5.73;5.33;;;;;;;26.78;46.98;100234.41;255462;1100;116621;-68
2021/08/13 16:47:40;;;;;;;6.90;5.98;;;;;;;26.48;47.75;100228.14;253905;1104;117463;-70
2021/08/13 16:52:43;;;;;;;8.73;7.05;;;;;;;26.23;48.65;100241.88;253633;1104;116332;-70
2021/08/13 16:57:46;;;;;;;6.63;6.13;;;;;;;25.98;49.25;100235.38;253583;1104;117327;-67
2021/08/13 17:02:52;;;;;;;7.25;6.48;;;;;;;25.75;50.38;100232.83;254403;1104;116863;-67
2021/08/13 17:07:57;;;;;;;7.73;6.43;;;;;;;25.55;51.62;100217.09;254418;1104;116463;-68
2021/08/13 17:13:02;;;;;;;6.83;6.27;;;;;;;25.35;52.84;100223.22;254301;1098;116385;-66
2021/08/13 17:18:05;;;;;;;7.83;6.65;;;;;;;25.15;53.14;100222.71;254864;1104;116453;-68
2021/08/13 17:23:10;;;;;;;7.23;6.48;;;;;;;24.96;53.29;100216.77;253890;1104;116853;-69
2021/08/13 17:28:17;;;;;;;13.50;7.98;;;;;;;24.73;53.44;100224.23;256306;1104;116621;-70
2021/08/13 17:33:20;;;;;;;7.10;6.40;;;;;;;24.51;54.42;100221.58;254285;1104;117548;-69
2021/08/13 17:38:24;;;;;;;7.33;6.80;;;;;;;24.28;54.50;100229.03;255292;1104;116418;-67
2021/08/13 17:43:27;;;;;;;15.25;7.68;;;;;;;24.10;54.98;100224.60;255687;1104;116874;-67
2021/08/13 17:48:30;;;;;;;7.08;5.95;;;;;;;23.94;55.73;100223.38;257042;1104;116207;-68
2021/08/13 17:53:33;;;;;;;7.48;6.88;;;;;;;23.78;56.57;100226.50;257180;1104;116555;-68
2021/08/13 17:58:36;;;;;;;10.73;7.70;;;;;;;23.64;57.20;100231.19;257022;1104;117049;-68
2021/08/13 18:03:39;;;;;;;11.53;7.83;;;;;;;23.39;57.19;100226.33;257252;1104;116909;-67
2021/08/13 18:08:43;;;;;;;7.55;6.45;;;;;;;22.98;57.29;100226.44;257215;1104;116306;-68
2021/08/13 18:13:51;;;;;;;11.15;6.80;;;;;;;22.61;58.13;100222.04;257033;1104;116205;-68
2021/08/13 18:18:56;;;;;;;7.73;6.98;;;;;;;22.39;58.55;100223.53;257088;1104;116881;-67
2021/08/13 18:23:59;;;;;;;7.40;6.80;;;;;;;22.28;58.93;100233.00;256255;1104;117423;-67
2021/08/13 18:29:06;;;;;;;7.70;7.00;;;;;;;22.15;59.00;100228.34;257015;1104;116013;-68
2021/08/13 18:34:09;;;;;;;8.05;7.30;;;;;;;22.04;59.82;100235.05;256677;1104;117295;-68
2021/08/13 18:39:13;;;;;;;11.50;9.20;;;;;;;21.91;59.71;100243.95;255937;1098;115921;-69
2021/08/13 18:44:17;;;;;;;15.53;9.65;;;;;;;21.69;60.08;100244.59;256462;1104;116518;-69
2021/08/13 18:49:20;;;;;;;14.50;7.60;;;;;;;21.34;60.34;100237.80;254194;1100;115953;-68
2021/08/13 18:54:25;;;;;;;13.35;10.78;;;;;;;21.09;61.34;100234.33;254988;1104;115564;-68
2021/08/13 18:59:32;;;;;;;16.47;10.77;;;;;;;21.05;61.62;100235.20;254646;1104;116026;-67
2021/08/13 19:04:35;;;;;;;18.25;11.10;;;;;;;20.99;62.08;100250.72;254257;1104;116228;-66
2021/08/13 19:09:38;;;;;;;13.30;9.98;;;;;;;20.85;62.12;100244.38;256235;1104;116730;-67
2021/08/13 19:14:41;;;;;;;11.00;9.90;;;;;;;20.74;62.38;100242.91;255616;1104;116245;-68
2021/08/13 19:19:44;;;;;;;15.57;9.63;;;;;;;20.48;62.31;100242.41;254672;1104;116206;-67
2021/08/13 19:24:49;;;;;;;15.53;11.58;;;;;;;20.35;63.14;100245.75;254901;1104;115718;-67
2021/08/13 19:29:53;;;;;;;32.55;11.53;;;;;;;20.09;63.41;100242.50;254261;1104;116979;-66
2021/08/13 19:34:57;;;;;;;18.58;10.80;;;;;;;19.83;64.02;100241.92;253976;1104;116791;-67
2021/08/13 19:40:00;;;;;;;16.75;12.98;;;;;;;19.76;64.51;100244.95;254251;1104;116904;-67
2021/08/13 19:45:04;;;;;;;23.28;14.35;;;;;;;19.72;64.62;100246.59;255467;1104;116142;-67
2021/08/13 19:50:11;;;;;;;20.95;14.05;;;;;;;19.61;64.39;100236.13;254585;1104;115971;-66
2021/08/13 19:55:14;;;;;;;24.38;12.40;;;;;;;19.38;64.82;100243.03;257199;1104;116491;-66
2021/08/13 20:00:18;;;;;;;23.65;15.18;;;;;;;19.24;65.21;100237.45;255435;1104;116785;-67
2021/08/13 20:05:21;;;;;;;25.73;14.05;;;;;;;19.31;65.55;100231.71;254376;1104;116204;-67
2021/08/13 20:10:24;;;;;;;14.68;12.68;;;;;;;19.20;65.33;100224.77;255948;1104;116086;-67
2021/08/13 20:15:27;;;;;;;14.28;12.78;;;;;;;19.14;65.81;100224.80;257146;1104;117144;-66
2021/08/13 20:20:30;;;;;;;13.53;11.85;;;;;;;19.07;65.95;100218.08;257221;1104;116738;-66
2021/08/13 20:25:33;;;;;;;16.43;13.28;;;;;;;18.99;66.13;100222.17;257233;1104;116031;-66
2021/08/13 20:30:42;;;;;;;22.03;14.47;;;;;;;18.97;66.35;100218.94;257228;1104;117253;-68
2021/08/13 20:35:45;;;;;;;16.03;13.28;;;;;;;18.95;66.49;100213.03;257281;1104;119146;-67
2021/08/13 20:40:51;;;;;;;15.03;13.48;;;;;;;18.94;67.06;100216.01;254477;1104;117593;-67
2021/08/13 20:45:53;;;;;;;16.13;12.20;;;;;;;18.97;66.76;100210.83;256979;1104;116867;-66
2021/08/13 20:50:57;;;;;;;14.60;12.70;;;;;;;18.98;66.57;100203.53;256715;1104;116660;-66
2021/08/13 20:56:01;;;;;;;40.00;14.78;;;;;;;18.98;66.94;100196.23;253883;1104;117154;-66
2021/08/13 21:01:04;;;;;;;19.50;14.25;;;;;;;19.00;66.92;100191.36;255874;1104;116970;-66
2021/08/13 21:06:07;;;;;;;19.85;13.43;;;;;;;19.05;67.19;100188.64;254129;1104;116821;-65
2021/08/13 21:11:10;;;;;;;15.93;12.85;;;;;;;19.08;67.23;100196.19;257018;1104;116506;-66
2021/08/13 21:16:13;;;;;;;17.13;12.85;;;;;;;19.09;67.04;100187.00;254989;1104;117186;-67
2021/08/13 21:21:22;;;;;;;14.85;12.58;;;;;;;19.06;67.25;100179.45;253777;1104;116971;-66
2021/08/13 21:26:29;;;;;;;21.43;12.45;;;;;;;19.02;67.34;100181.09;254218;1100;115752;-66
2021/08/13 21:31:33;;;;;;;15.70;13.38;;;;;;;18.96;67.21;100184.90;254500;1100;116820;-66
2021/08/13 21:36:36;;;;;;;14.53;13.05;;;;;;;18.90;67.32;100183.34;254337;1100;116637;-67
2021/08/13 21:41:41;;;;;;;14.98;13.48;;;;;;;18.87;67.43;100177.68;255245;1104;116783;-67
2021/08/13 21:46:44;;;;;;;18.47;12.63;;;;;;;18.78;67.40;100177.45;254049;1104;116406;-67
2021/08/13 21:51:48;;;;;;;14.60;12.87;;;;;;;18.71;67.43;100174.23;254385;1100;117021;-66
2021/08/13 21:56:52;;;;;;;13.70;11.73;;;;;;;18.66;67.79;100166.16;254923;1104;116975;-66
2021/08/13 22:01:56;;;;;;;15.05;13.55;;;;;;;18.63;67.91;100169.44;257034;1104;116507;-68
2021/08/13 22:06:59;;;;;;;15.33;13.68;;;;;;;18.60;67.80;100167.28;255045;1104;116743;-67
2021/08/13 22:12:02;;;;;;;18.50;12.53;;;;;;;18.61;68.18;100164.31;257052;1105;117421;-68
2021/08/13 22:17:05;;;;;;;18.25;11.70;;;;;;;18.65;67.82;100159.17;256316;1100;116762;-67
2021/08/13 22:22:09;;;;;;;14.47;13.03;;;;;;;18.64;68.05;100152.15;257212;1104;116998;-68
2021/08/13 22:27:12;;;;;;;14.80;11.88;;;;;;;18.67;68.16;100159.67;257161;1104;115768;-67
2021/08/13 22:32:16;;;;;;;15.55;11.25;;;;;;;18.71;68.33;100164.24;255541;1104;116143;-67
2021/08/13 22:37:22;;;;;;;23.33;12.33;;;;;;;18.75;68.49;100159.09;254968;1104;115594;-65
2021/08/13 22:42:25;;;;;;;13.33;12.00;;;;;;;18.76;68.43;100153.41;257134;1104;115878;-67
2021/08/13 22:47:30;;;;;;;15.10;11.25;;;;;;;18.71;68.30;100148.04;254399;1104;116070;-66
2021/08/13 22:52:33;;;;;;;13.50;11.80;;;;;;;18.69;68.61;100165.60;256631;1104;116536;-67
2021/08/13 22:57:36;;;;;;;14.80;12.23;;;;;;;18.66;68.53;100160.75;254475;1104;116778;-66